createdAt,value
2022-08-03T00:01:29.534Z,60.87
2022-08-03T00:03:56.910Z,61.33
2022-08-03T00:06:24.118Z,61.09
2022-08-03T00:08:51.353Z,60.73
2022-08-03T00:11:18.727Z,60.76
2022-08-03T00:13:46.012Z,60.89
2022-08-03T00:16:13.502Z,60.20
2022-08-03T00:18:40.870Z,60.32
2022-08-03T00:21:08.175Z,59.35
2022-08-03T00:23:51.498Z,59.40
2022-08-03T00:26:20.571Z,58.69
2022-08-03T00:28:47.973Z,58.38
2022-08-03T00:31:15.269Z,58.23
2022-08-03T00:33:57.971Z,57.80
2022-08-03T00:36:26.929Z,57.73
2022-08-03T00:38:54.190Z,57.57
2022-08-03T00:41:21.432Z,57.48
2022-08-03T00:43:48.663Z,57.31
2022-08-03T00:46:20.795Z,57.32
2022-08-03T00:48:49.524Z,57.08
2022-08-03T00:51:16.856Z,57.23
2022-08-03T00:53:45.505Z,57.57
2022-08-03T00:56:19.184Z,56.85
2022-08-03T00:58:47.394Z,57.29
2022-08-03T01:01:15.211Z,56.96
2022-08-03T01:03:42.708Z,56.96
2022-08-03T01:06:22.732Z,57.13
2022-08-03T01:09:31.767Z,57.01
2022-08-03T01:12:22.933Z,57.30
2022-08-03T01:15:02.236Z,57.19
2022-08-03T01:17:47.288Z,57.31
2022-08-03T01:20:15.384Z,57.44
2022-08-03T01:23:07.878Z,57.33
2022-08-03T01:25:46.966Z,57.47
2022-08-03T01:28:59.373Z,57.80
2022-08-03T01:32:59.468Z,57.25
2022-08-03T01:34:41.607Z,56.99
2022-08-03T01:37:11.730Z,57.80
2022-08-03T01:39:40.394Z,58.02
2022-08-03T01:42:08.941Z,57.99
2022-08-03T01:44:38.746Z,58.24
2022-08-03T01:47:06.528Z,58.24
2022-08-03T01:49:39.907Z,58.25
2022-08-03T01:52:08.507Z,58.42
2022-08-03T01:54:38.270Z,58.04
2022-08-03T01:57:05.918Z,58.75
2022-08-03T01:59:35.713Z,58.84
2022-08-03T02:02:31.777Z,58.33
2022-08-03T02:04:53.858Z,58.82
2022-08-03T02:07:21.210Z,58.62
2022-08-03T02:09:52.718Z,59.17
2022-08-03T02:12:22.491Z,58.78
2022-08-03T02:14:50.160Z,58.98
2022-08-03T02:17:17.585Z,59.13
2022-08-03T02:19:45.315Z,59.63
2022-08-03T02:22:13.981Z,59.37
2022-08-03T02:24:41.558Z,59.31
2022-08-03T02:27:23.393Z,58.85
2022-08-03T02:30:12.539Z,58.99
2022-08-03T02:32:41.278Z,58.65
2022-08-03T02:35:11.905Z,58.90
2022-08-03T02:37:45.016Z,58.95
2022-08-03T02:40:19.560Z,59.19
2022-08-03T02:42:48.454Z,59.88
2022-08-03T02:45:17.597Z,59.52
2022-08-03T02:47:54.161Z,59.65
2022-08-03T02:50:23.281Z,59.88
2022-08-03T02:52:51.056Z,59.94
2022-08-03T02:55:21.190Z,60.13
2022-08-03T02:57:48.950Z,60.13
2022-08-03T03:00:27.204Z,60.59
2022-08-03T03:02:58.328Z,61.13
2022-08-03T03:05:56.115Z,61.31
2022-08-03T03:08:23.570Z,61.01
2022-08-03T03:10:55.585Z,60.81
2022-08-03T03:13:23.501Z,60.32
2022-08-03T03:15:52.408Z,59.62
2022-08-03T03:18:22.795Z,59.70
2022-08-03T03:20:51.896Z,59.91
2022-08-03T03:23:21.826Z,60.31
2022-08-03T03:25:49.372Z,60.01
2022-08-03T03:28:16.768Z,59.95
2022-08-03T03:30:44.076Z,59.84
2022-08-03T03:33:11.457Z,59.49
2022-08-03T03:35:39.421Z,59.05
2022-08-03T03:38:09.618Z,59.62
2022-08-03T03:40:38.051Z,59.06
2022-08-03T03:43:09.788Z,59.11
2022-08-03T03:45:37.356Z,59.13
2022-08-03T03:48:05.677Z,58.98
2022-08-03T03:50:34.119Z,58.29
2022-08-03T03:53:02.138Z,58.30
2022-08-03T03:55:29.656Z,58.20
2022-08-03T03:57:57.332Z,57.88
2022-08-03T04:00:24.593Z,57.62
2022-08-03T04:02:51.821Z,58.05
2022-08-03T04:05:37.656Z,57.71
2022-08-03T04:08:27.954Z,57.59
2022-08-03T04:11:29.339Z,58.09
2022-08-03T04:14:03.392Z,58.24
2022-08-03T04:16:39.738Z,58.17
2022-08-03T04:19:17.481Z,58.30
2022-08-03T04:21:51.606Z,58.19
2022-08-03T04:24:20.520Z,57.73
2022-08-03T04:26:52.642Z,58.00
2022-08-03T04:29:21.753Z,57.95
2022-08-03T04:31:49.571Z,58.44
2022-08-03T04:34:17.017Z,58.56
2022-08-03T04:36:49.364Z,58.01
2022-08-03T04:39:27.203Z,57.16
2022-08-03T04:42:07.270Z,56.59
2022-08-03T04:44:41.243Z,56.10
2022-08-03T04:47:08.729Z,55.67
2022-08-03T04:49:37.991Z,55.27
2022-08-03T04:52:07.514Z,54.94
2022-08-03T04:54:48.814Z,54.61
2022-08-03T04:57:23.143Z,54.05
2022-08-03T05:00:02.461Z,53.47
2022-08-03T05:02:31.982Z,53.27
2022-08-03T05:04:59.652Z,52.85
2022-08-03T05:07:35.777Z,52.34
2022-08-03T05:10:15.670Z,51.89
2022-08-03T05:12:44.838Z,51.76
2022-08-03T05:15:12.700Z,51.24
2022-08-03T05:17:40.003Z,50.85
2022-08-03T05:20:07.836Z,50.56
2022-08-03T05:22:35.073Z,50.34
2022-08-03T05:25:02.953Z,50.15
2022-08-03T05:27:30.277Z,49.70
2022-08-03T05:30:30.828Z,49.87
2022-08-03T05:32:44.749Z,49.18
2022-08-03T05:35:57.234Z,48.79
2022-08-03T05:37:59.208Z,48.80
2022-08-03T05:40:26.871Z,48.23
2022-08-03T05:42:54.210Z,48.08
2022-08-03T05:45:26.612Z,47.88
2022-08-03T05:47:55.689Z,46.75
2022-08-03T05:50:22.961Z,46.34
2022-08-03T05:52:50.164Z,46.07
2022-08-03T05:55:17.754Z,46.44
2022-08-03T05:57:47.232Z,45.34
2022-08-03T06:00:17.169Z,45.21
2022-08-03T06:02:44.423Z,44.49
2022-08-03T06:05:11.710Z,43.40
2022-08-03T06:07:39.009Z,42.56
2022-08-03T06:10:37.320Z,42.58
2022-08-03T06:12:54.117Z,42.40
2022-08-03T06:15:21.373Z,41.62
2022-08-03T06:17:49.480Z,40.78
2022-08-03T06:20:18.480Z,40.70
2022-08-03T06:22:51.376Z,40.01
2022-08-03T06:25:27.905Z,39.14
2022-08-03T06:27:55.176Z,38.86
2022-08-03T06:30:22.541Z,38.32
2022-08-03T06:32:52.041Z,36.72
2022-08-03T06:35:19.908Z,36.89
2022-08-03T06:37:49.008Z,36.46
2022-08-03T06:40:21.707Z,35.08
2022-08-03T06:42:50.842Z,34.83
2022-08-03T06:45:18.685Z,34.73
2022-08-03T06:47:45.936Z,33.70
2022-08-03T06:50:16.850Z,33.40
2022-08-03T06:52:45.343Z,33.08
2022-08-03T06:55:12.739Z,31.96
2022-08-03T06:57:39.987Z,31.99
2022-08-03T07:00:12.253Z,30.17
2022-08-03T07:02:40.320Z,30.13
2022-08-03T07:05:08.739Z,29.20
2022-08-03T07:07:36.012Z,28.38
2022-08-03T07:10:03.642Z,27.13
2022-08-03T07:12:32.055Z,27.18
2022-08-03T07:15:02.656Z,25.14
2022-08-03T07:17:31.695Z,25.29
2022-08-03T07:19:59.068Z,25.54
2022-08-03T07:22:26.395Z,25.98
2022-08-03T07:24:54.222Z,25.52
2022-08-03T07:27:21.462Z,25.90
2022-08-03T07:29:48.791Z,25.39
2022-08-03T07:32:16.188Z,25.87
2022-08-03T07:34:43.951Z,25.48
2022-08-03T07:37:11.407Z,24.88
2022-08-03T07:39:38.659Z,24.41
2022-08-03T07:42:05.891Z,23.83
2022-08-03T07:44:33.229Z,23.48
2022-08-03T07:47:00.640Z,22.99
2022-08-03T07:49:30.923Z,22.70
2022-08-03T07:52:17.373Z,22.64
2022-08-03T07:54:44.905Z,21.88
2022-08-03T07:57:12.154Z,21.62
2022-08-03T07:59:56.415Z,21.77
2022-08-03T08:02:27.281Z,21.36
2022-08-03T08:04:55.035Z,21.42
2022-08-03T08:07:22.283Z,21.71
2022-08-03T08:09:49.538Z,21.59
2022-08-03T08:12:16.984Z,22.16
2022-08-03T08:14:46.708Z,22.44
2022-08-03T08:17:14.348Z,22.28
2022-08-03T08:19:43.817Z,22.54
2022-08-03T08:22:26.535Z,22.98
2022-08-03T08:25:01.190Z,24.12
2022-08-03T08:28:22.275Z,23.86
2022-08-03T08:30:19.668Z,24.71
2022-08-03T08:32:47.664Z,24.90
2022-08-03T08:35:15.294Z,25.37
2022-08-03T08:37:43.228Z,26.49
2022-08-03T08:40:20.910Z,25.96
2022-08-03T08:42:57.834Z,26.06
2022-08-03T08:45:25.486Z,26.54
2022-08-03T08:47:55.775Z,26.95
2022-08-03T08:50:27.636Z,26.97
2022-08-03T08:52:55.819Z,26.40
2022-08-03T08:55:24.154Z,26.55
2022-08-03T08:57:53.083Z,27.43
2022-08-03T09:00:20.378Z,26.24
2022-08-03T09:02:47.670Z,27.31
2022-08-03T09:05:16.932Z,27.02
2022-08-03T09:07:44.820Z,26.54
2022-08-03T09:10:13.960Z,26.67
2022-08-03T09:12:49.305Z,25.80
2022-08-03T09:15:19.629Z,25.25
2022-08-03T09:17:50.870Z,26.08
2022-08-03T09:20:19.643Z,26.08
2022-08-03T09:22:54.627Z,26.88
2022-08-03T09:25:30.513Z,26.25
2022-08-03T09:28:07.783Z,25.92
2022-08-03T09:30:35.964Z,25.10
2022-08-03T09:33:08.994Z,24.88
2022-08-03T09:35:59.997Z,26.07
2022-08-03T09:38:27.530Z,25.82
2022-08-03T09:40:59.498Z,25.99
2022-08-03T09:43:28.054Z,25.44
2022-08-03T09:46:04.114Z,25.49
2022-08-03T09:48:32.516Z,25.21
2022-08-03T09:51:13.100Z,25.45
2022-08-03T09:53:58.844Z,26.58
2022-08-03T09:56:39.469Z,25.79
2022-08-03T09:59:06.748Z,25.53
2022-08-03T10:01:35.251Z,26.23
2022-08-03T10:04:04.010Z,25.72
2022-08-03T10:06:32.079Z,25.43
2022-08-03T10:09:13.765Z,26.33
2022-08-03T10:11:42.514Z,25.37
2022-08-03T10:14:19.445Z,25.85
2022-08-03T10:16:48.180Z,25.34
2022-08-03T10:19:15.800Z,25.37
2022-08-03T10:21:51.336Z,24.87
2022-08-03T10:24:24.722Z,24.91
2022-08-03T10:26:52.407Z,24.57
2022-08-03T10:29:24.696Z,24.89
2022-08-03T10:31:58.059Z,24.63
2022-08-03T10:34:27.477Z,25.46
2022-08-03T10:36:58.865Z,25.01
2022-08-03T10:39:29.026Z,24.80
2022-08-03T10:41:58.650Z,25.08
2022-08-03T10:44:31.027Z,25.44
2022-08-03T10:46:58.460Z,25.67
2022-08-03T10:49:34.253Z,25.84
2022-08-03T10:52:11.393Z,26.04
2022-08-03T10:55:10.998Z,25.70
2022-08-03T10:57:45.860Z,25.80
2022-08-03T11:00:18.013Z,25.12
2022-08-03T11:03:16.801Z,25.96
2022-08-03T11:05:49.183Z,25.82
2022-08-03T11:08:24.891Z,26.08
2022-08-03T11:10:55.158Z,26.38
2022-08-03T11:13:24.669Z,25.97
2022-08-03T11:16:01.651Z,25.47
2022-08-03T11:18:34.553Z,25.28
2022-08-03T11:21:03.146Z,25.61
2022-08-03T11:24:04.541Z,25.38
2022-08-03T11:26:36.218Z,24.95
2022-08-03T11:29:30.295Z,26.34
2022-08-03T11:32:01.201Z,26.39
2022-08-03T11:34:28.492Z,25.44
2022-08-03T11:37:22.271Z,25.46
2022-08-03T11:39:55.535Z,25.21
2022-08-03T11:42:22.986Z,25.82
2022-08-03T11:45:01.414Z,26.13
2022-08-03T11:47:31.787Z,25.96
2022-08-03T11:50:02.090Z,26.89
2022-08-03T11:52:37.394Z,27.19
2022-08-03T11:55:10.509Z,27.40
2022-08-03T11:59:17.704Z,27.44
2022-08-03T12:00:33.036Z,27.45
2022-08-03T12:03:10.890Z,27.84
2022-08-03T12:05:51.931Z,27.72
2022-08-03T12:08:40.551Z,27.38
2022-08-03T12:11:08.809Z,27.07
2022-08-03T12:14:27.420Z,26.77
2022-08-03T12:16:28.759Z,26.85
2022-08-03T12:19:01.089Z,27.65
2022-08-03T12:21:28.915Z,27.79
2022-08-03T12:24:03.968Z,27.52
2022-08-03T12:26:42.906Z,27.31
2022-08-03T12:29:20.490Z,27.55
2022-08-03T12:31:48.357Z,27.39
2022-08-03T12:34:16.400Z,27.39
2022-08-03T12:36:56.061Z,27.40
2022-08-03T12:39:30.946Z,27.39
2022-08-03T12:41:58.449Z,27.23
2022-08-03T12:44:36.000Z,27.79
2022-08-03T12:47:03.908Z,27.69
2022-08-03T12:49:46.331Z,27.68
2022-08-03T12:52:13.864Z,28.17
2022-08-03T12:54:41.286Z,28.30
2022-08-03T12:57:15.807Z,28.23
2022-08-03T12:59:53.324Z,28.31
2022-08-03T13:02:25.910Z,28.00
2022-08-03T13:04:55.964Z,28.30
2022-08-03T13:07:24.054Z,28.16
2022-08-03T13:09:54.343Z,28.14
2022-08-03T13:12:23.869Z,28.10
2022-08-03T13:14:53.493Z,28.36
2022-08-03T13:17:21.580Z,28.19
2022-08-03T13:19:49.796Z,28.80
2022-08-03T13:22:20.126Z,28.55
2022-08-03T13:24:50.671Z,28.76
2022-08-03T13:28:02.628Z,28.90
2022-08-03T13:30:06.233Z,28.88
2022-08-03T13:32:33.858Z,29.12
2022-08-03T13:35:02.688Z,29.24
2022-08-03T13:37:32.172Z,28.89
2022-08-03T13:40:02.537Z,29.16
2022-08-03T13:42:34.364Z,29.11
2022-08-03T13:45:02.506Z,28.61
2022-08-03T13:47:31.140Z,28.99
2022-08-03T13:50:01.089Z,28.85
2022-08-03T13:52:50.275Z,28.90
2022-08-03T13:55:17.547Z,29.06
2022-08-03T13:58:02.349Z,29.00
2022-08-03T14:00:33.114Z,29.29
2022-08-03T14:03:12.579Z,29.01
2022-08-03T14:05:41.475Z,28.92
2022-08-03T14:08:09.340Z,28.71
2022-08-03T14:10:45.630Z,28.96
2022-08-03T14:13:17.707Z,28.66
2022-08-03T14:15:49.604Z,28.91
2022-08-03T14:18:28.945Z,28.72
2022-08-03T14:21:06.894Z,28.88
2022-08-03T14:23:38.373Z,28.98
2022-08-03T14:26:10.572Z,28.57
2022-08-03T14:28:38.454Z,28.70
2022-08-03T14:31:08.312Z,28.59
2022-08-03T14:33:48.940Z,28.88
2022-08-03T14:36:16.154Z,28.68
2022-08-03T14:38:44.264Z,29.05
2022-08-03T14:41:12.059Z,28.78
2022-08-03T14:44:00.563Z,28.65
2022-08-03T14:46:32.848Z,28.77
2022-08-03T14:50:31.596Z,29.07
2022-08-03T14:51:51.324Z,28.95
2022-08-03T14:54:21.247Z,29.37
2022-08-03T14:56:57.098Z,28.66
2022-08-03T14:59:55.612Z,28.69
2022-08-03T15:02:26.398Z,28.87
2022-08-03T15:04:54.693Z,28.96
2022-08-03T15:07:22.153Z,28.84
2022-08-03T15:09:50.692Z,28.63
2022-08-03T15:12:17.972Z,28.57
2022-08-03T15:14:45.228Z,28.81
2022-08-03T15:17:12.539Z,28.59
2022-08-03T15:20:01.408Z,28.93
2022-08-03T15:22:34.795Z,28.88
2022-08-03T15:26:01.676Z,29.15
2022-08-03T15:28:04.155Z,29.11
2022-08-03T15:30:35.912Z,29.12
2022-08-03T15:33:03.452Z,29.19
2022-08-03T15:35:30.685Z,29.40
2022-08-03T15:37:57.911Z,29.22
2022-08-03T15:40:25.249Z,29.12
2022-08-03T15:42:52.625Z,28.51
2022-08-03T15:45:20.525Z,28.82
2022-08-03T15:47:47.880Z,28.92
2022-08-03T15:50:15.286Z,28.68
2022-08-03T15:52:42.652Z,28.98
2022-08-03T15:55:15.477Z,29.29
2022-08-03T15:59:04.608Z,29.12
2022-08-03T16:00:33.523Z,28.88
2022-08-03T16:03:05.891Z,28.98
2022-08-03T16:05:33.532Z,28.97
2022-08-03T16:08:03.411Z,28.64
2022-08-03T16:10:31.538Z,29.63
2022-08-03T16:12:59.989Z,29.27
2022-08-03T16:15:27.846Z,28.96
2022-08-03T16:17:55.127Z,29.05
2022-08-03T16:20:30.844Z,29.14
2022-08-03T16:23:07.763Z,29.01
2022-08-03T16:25:42.484Z,28.85
2022-08-03T16:28:14.376Z,28.70
2022-08-03T16:30:43.960Z,28.54
2022-08-03T16:33:17.473Z,28.92
2022-08-03T16:35:46.526Z,29.02
2022-08-03T16:38:18.351Z,28.70
2022-08-03T16:40:51.472Z,28.56
2022-08-03T16:43:20.398Z,28.89
2022-08-03T16:45:48.055Z,28.69
2022-08-03T16:48:16.159Z,29.20
2022-08-03T16:50:44.401Z,28.89
2022-08-03T16:53:16.634Z,29.14
2022-08-03T16:55:53.249Z,28.96
2022-08-03T16:58:34.883Z,28.84
2022-08-03T17:01:24.064Z,29.43
2022-08-03T17:04:01.971Z,29.15
2022-08-03T17:06:35.648Z,29.31
2022-08-03T17:09:08.882Z,29.29
2022-08-03T17:11:44.002Z,29.63
2022-08-03T17:14:13.691Z,30.07
2022-08-03T17:16:52.111Z,29.71
2022-08-03T17:19:23.183Z,29.83
2022-08-03T17:22:04.807Z,30.20
2022-08-03T17:24:41.098Z,30.17
2022-08-03T17:28:41.834Z,30.26
2022-08-03T17:30:01.176Z,30.04
2022-08-03T17:32:32.237Z,30.16
2022-08-03T17:35:00.402Z,29.74
2022-08-03T17:37:57.996Z,30.34
2022-08-03T17:40:17.466Z,29.76
2022-08-03T17:42:46.033Z,29.86
2022-08-03T17:45:18.886Z,29.94
2022-08-03T17:47:57.195Z,30.18
2022-08-03T17:50:34.054Z,30.41
2022-08-03T17:53:15.169Z,31.02
2022-08-03T17:59:11.861Z,31.23
2022-08-03T18:02:26.496Z,31.06
2022-08-03T18:05:16.227Z,31.02
2022-08-03T18:07:59.210Z,31.75
2022-08-03T18:10:35.675Z,32.07
2022-08-03T18:13:10.536Z,31.90
2022-08-03T18:15:47.406Z,31.78
2022-08-03T18:18:16.428Z,31.90
2022-08-03T18:20:57.332Z,32.65
2022-08-03T18:23:37.394Z,32.30
2022-08-03T18:26:07.828Z,32.37
2022-08-03T18:28:39.911Z,33.20
2022-08-03T18:31:11.817Z,32.93
2022-08-03T18:34:16.801Z,32.98
2022-08-03T18:36:29.946Z,33.66
2022-08-03T18:39:02.976Z,34.12
2022-08-03T18:41:34.569Z,34.12
2022-08-03T18:44:07.940Z,33.97
2022-08-03T18:47:51.491Z,34.79
2022-08-03T18:50:25.833Z,35.04
2022-08-03T18:53:16.437Z,35.07
2022-08-03T18:56:01.976Z,35.23
2022-08-03T18:58:48.432Z,35.87
2022-08-03T19:01:57.416Z,36.13
2022-08-03T19:04:45.346Z,36.50
2022-08-03T19:07:21.563Z,36.81
2022-08-03T19:09:59.627Z,37.09
2022-08-03T19:13:00.751Z,37.32
2022-08-03T19:15:36.697Z,37.85
2022-08-03T19:18:11.043Z,37.89
2022-08-03T19:20:38.557Z,38.40
2022-08-03T19:23:07.479Z,38.71
2022-08-03T19:25:41.841Z,39.11
2022-08-03T19:28:09.561Z,39.23
2022-08-03T19:30:40.383Z,39.94
2022-08-03T19:33:13.691Z,40.40
2022-08-03T19:35:51.293Z,40.84
2022-08-03T19:38:28.726Z,40.78
2022-08-03T19:40:59.557Z,40.65
2022-08-03T19:43:52.786Z,41.11
2022-08-03T19:46:22.431Z,41.29
2022-08-03T19:49:10.466Z,41.68
2022-08-03T19:52:01.452Z,42.44
2022-08-03T19:54:52.951Z,42.34
2022-08-03T19:57:23.863Z,42.63
2022-08-03T19:59:52.777Z,42.33
2022-08-03T20:02:26.375Z,42.74
2022-08-03T20:04:55.861Z,42.94
2022-08-03T20:07:24.298Z,43.56
2022-08-03T20:09:54.529Z,43.33
2022-08-03T20:12:27.495Z,43.37
2022-08-03T20:14:57.520Z,43.90
2022-08-03T20:17:56.417Z,44.47
2022-08-03T20:20:13.404Z,44.28
2022-08-03T20:22:45.528Z,45.09
2022-08-03T20:25:16.405Z,44.71
2022-08-03T20:28:08.277Z,45.23
2022-08-03T20:30:36.530Z,45.51
2022-08-03T20:33:04.534Z,45.37
2022-08-03T20:35:33.144Z,44.82
2022-08-03T20:38:00.728Z,45.48
2022-08-03T20:40:28.041Z,45.74
2022-08-03T20:42:56.372Z,45.66
2022-08-03T20:45:59.039Z,45.69
2022-08-03T20:48:11.262Z,45.76
2022-08-03T20:50:44.278Z,45.88
2022-08-03T20:53:12.672Z,45.60
2022-08-03T20:55:48.004Z,46.35
2022-08-03T20:58:27.627Z,46.30
2022-08-03T21:00:56.939Z,46.55
2022-08-03T21:03:24.231Z,46.04
2022-08-03T21:06:10.524Z,47.10
2022-08-03T21:08:46.882Z,46.54
2022-08-03T21:11:19.102Z,47.27
2022-08-03T21:13:04.111Z,31.20
2022-08-03T21:14:01.385Z,47.94
2022-08-03T21:16:29.665Z,48.07
2022-08-03T21:18:59.603Z,48.06
2022-08-03T21:21:28.595Z,48.63
2022-08-03T21:23:56.336Z,49.17
2022-08-03T21:26:25.689Z,49.71
2022-08-03T21:28:55.324Z,49.66
2022-08-03T21:31:25.627Z,50.26
2022-08-03T21:33:58.619Z,50.93
2022-08-03T21:36:31.777Z,50.93
2022-08-03T21:38:59.753Z,51.21
2022-08-03T21:41:29.481Z,51.21
2022-08-03T21:43:57.107Z,50.98
2022-08-03T21:46:24.837Z,50.89
2022-08-03T21:49:52.174Z,51.38
2022-08-03T21:51:46.066Z,51.47
2022-08-03T21:54:14.064Z,51.57
2022-08-03T21:56:42.673Z,51.81
2022-08-03T21:59:17.534Z,51.54
2022-08-03T22:01:49.066Z,51.99
2022-08-03T22:04:50.100Z,52.74
2022-08-03T22:07:07.607Z,52.82
2022-08-03T22:09:35.491Z,53.16
2022-08-03T22:12:03.026Z,53.17
2022-08-03T22:14:33.055Z,52.68
2022-08-03T22:17:03.461Z,53.41
2022-08-03T22:19:33.827Z,53.64
2022-08-03T22:22:05.981Z,53.73
2022-08-03T22:24:36.116Z,53.70
2022-08-03T22:27:24.004Z,53.49
2022-08-03T22:29:52.536Z,53.55
2022-08-03T22:32:21.459Z,53.75
2022-08-03T22:34:49.910Z,54.00
2022-08-03T22:37:18.617Z,54.33
2022-08-03T22:39:46.514Z,54.16
2022-08-03T22:42:16.826Z,54.44
2022-08-03T22:44:45.344Z,54.61
2022-08-03T22:47:13.758Z,54.49
2022-08-03T22:49:41.199Z,54.90
2022-08-03T22:52:11.255Z,55.20
2022-08-03T22:54:38.652Z,54.91
2022-08-03T22:57:06.748Z,55.58
2022-08-03T22:59:41.127Z,55.63
2022-08-03T23:02:21.242Z,55.73
2022-08-03T23:04:56.901Z,56.10
2022-08-03T23:07:42.152Z,55.81
2022-08-03T23:10:12.563Z,56.33
2022-08-03T23:12:41.601Z,56.10
2022-08-03T23:15:11.571Z,56.36
2022-08-03T23:17:57.401Z,56.28
2022-08-03T23:20:26.692Z,56.79
2022-08-03T23:22:54.949Z,56.69
2022-08-03T23:25:22.624Z,56.91
2022-08-03T23:28:04.821Z,57.58
2022-08-03T23:30:34.687Z,56.80
2022-08-03T23:33:02.392Z,57.24
2022-08-03T23:36:27.980Z,57.26
2022-08-03T23:38:36.311Z,57.43
2022-08-03T23:41:04.716Z,57.52
2022-08-03T23:43:45.100Z,57.27
2022-08-03T23:46:22.472Z,57.08
2022-08-03T23:48:49.789Z,56.91
2022-08-03T23:51:28.351Z,56.46
2022-08-03T23:54:10.035Z,57.44
2022-08-03T23:56:46.755Z,57.12
2022-08-03T23:59:39.821Z,56.75
